Celebrity Equinox — 9HXD9 — position and weather

sailwx.info

Track history (hours):
 
Tides and Currents Weather Stations Pressure Air Temp Water Temp Dewpoint Dewpoint Depression Visibility Wind Speed Wind Dir Waves Ship Positions

Celebrity Equinox

Last reported at 2020-Mar-31 06:22 UTC. Time now 2020-Mar-31 06:55 UTC.
Position N 26°32' W 078°51'.

Length 317 m; draft 9 m.

Type: Passenger vessel. MMSI: 249667000.

Date/timePositionNaut miles runAvg speedWind from/ knotsBaromVisibWave heightAir tempDewpointWater temp
2020-Mar-31 06:22N 26°32' W 078°51'0 0.0
2020-Mar-31 03:17N 26°32' W 078°51'  
2020-Mar-28 19:26N 26°32' W 078°51'0 0.0
2020-Mar-28 08:30N 26°32' W 078°51'0 0.0
2020-Mar-26 10:35N 26°32' W 078°51'0 0.0
2020-Mar-26 09:59N 26°32' W 078°51'43 1.3
2020-Mar-25 01:30N 26°10' W 079°32'5 9.6
2020-Mar-25 01:00N 26°06' W 079°34'510.2
2020-Mar-25 00:30N 26°06' W 079°40'1610.6
2020-Mar-24 23:00N 26°07' W 079°58'8 5.6
2020-Mar-24 21:30N 26°05' W 080°07'0 0.0
2020-Mar-24 19:59N 26°05' W 080°07'0 0.0
2020-Mar-24 19:29N 26°05' W 080°07'0 0.0
2020-Mar-24 18:59N 26°05' W 080°07'0 0.0
2020-Mar-24 17:28N 26°05' W 080°07'0 0.0
2020-Mar-24 16:58N 26°05' W 080°07'0 0.0
2020-Mar-24 15:30N 26°05' W 080°07'0 0.0
2020-Mar-24 14:00N 26°05' W 080°07'0 0.0
2020-Mar-24 13:29N 26°05' W 080°07'0 0.0
2020-Mar-24 12:59N 26°05' W 080°07'15 5.1
2020-Mar-24 10:00N 26°06' W 079°50'1811.8
2020-Mar-24 08:30N 26°08' W 079°31'611.0
2020-Mar-24 08:00N 26°13' W 079°28'611.5
2020-Mar-24 07:29N 26°19' W 079°26'36 0.8
2020-Mar-22 10:00N 26°30' W 078°48'   090 / 81023.810.8 22.618.227.4
Track history (hours):
 
Tides and Currents Weather Stations Pressure Air Temp Water Temp Dewpoint Dewpoint Depression Visibility Wind Speed Wind Dir Waves Ship Positions

Celebrity Equinox

Last reported at 2020-Mar-31 06:22 UTC. Time now 2020-Mar-31 06:55 UTC.
Position N 26°32' W 078°51'.

Length 317 m; draft 9 m.

Type: Passenger vessel. MMSI: 249667000.

Date/timePositionNaut miles runAvg speedWind from/ knotsBaromVisibWave heightAir tempDewpointWater temp
2020-Mar-31 06:22N 26°32' W 078°51'0 0.0
2020-Mar-31 03:17N 26°32' W 078°51'  
2020-Mar-28 19:26N 26°32' W 078°51'0 0.0
2020-Mar-28 08:30N 26°32' W 078°51'0 0.0
2020-Mar-26 10:35N 26°32' W 078°51'0 0.0
2020-Mar-26 09:59N 26°32' W 078°51'43 1.3
2020-Mar-25 01:30N 26°10' W 079°32'5 9.6
2020-Mar-25 01:00N 26°06' W 079°34'510.2
2020-Mar-25 00:30N 26°06' W 079°40'1610.6
2020-Mar-24 23:00N 26°07' W 079°58'8 5.6
2020-Mar-24 21:30N 26°05' W 080°07'0 0.0
2020-Mar-24 19:59N 26°05' W 080°07'0 0.0
2020-Mar-24 19:29N 26°05' W 080°07'0 0.0
2020-Mar-24 18:59N 26°05' W 080°07'0 0.0
2020-Mar-24 17:28N 26°05' W 080°07'0 0.0
2020-Mar-24 16:58N 26°05' W 080°07'0 0.0
2020-Mar-24 15:30N 26°05' W 080°07'0 0.0
2020-Mar-24 14:00N 26°05' W 080°07'0 0.0
2020-Mar-24 13:29N 26°05' W 080°07'0 0.0
2020-Mar-24 12:59N 26°05' W 080°07'15 5.1
2020-Mar-24 10:00N 26°06' W 079°50'1811.8
2020-Mar-24 08:30N 26°08' W 079°31'611.0
2020-Mar-24 08:00N 26°13' W 079°28'611.5
2020-Mar-24 07:29N 26°19' W 079°26'36 0.8
2020-Mar-22 10:00N 26°30' W 078°48'   090 / 81023.810.8 22.618.227.4

Dump ship's entire track history